sensor_id;sensor_type;location;lat;lon;timestamp;P1;durP1;ratioP1;P2;durP2;ratioP2
48813;SDS011;34634;44.108;3.074;2022-11-20T00:00:13;12.27;;;2.65;;
48813;SDS011;34634;44.108;3.074;2022-11-20T00:02:40;13.80;;;2.65;;
48813;SDS011;34634;44.108;3.074;2022-11-20T00:05:06;6.93;;;2.60;;
48813;SDS011;34634;44.108;3.074;2022-11-20T00:07:33;7.57;;;2.53;;
48813;SDS011;34634;44.108;3.074;2022-11-20T00:09:59;6.18;;;2.65;;
48813;SDS011;34634;44.108;3.074;2022-11-20T00:12:25;7.18;;;2.38;;
48813;SDS011;34634;44.108;3.074;2022-11-20T00:14:52;14.52;;;2.80;;
48813;SDS011;34634;44.108;3.074;2022-11-20T00:17:18;9.45;;;2.60;;
48813;SDS011;34634;44.108;3.074;2022-11-20T00:19:44;5.60;;;1.80;;
48813;SDS011;34634;44.108;3.074;2022-11-20T00:22:11;9.82;;;2.17;;
48813;SDS011;34634;44.108;3.074;2022-11-20T00:24:37;5.35;;;2.20;;
48813;SDS011;34634;44.108;3.074;2022-11-20T00:27:03;9.38;;;2.75;;
48813;SDS011;34634;44.108;3.074;2022-11-20T00:29:30;9.45;;;3.05;;
48813;SDS011;34634;44.108;3.074;2022-11-20T00:31:56;8.80;;;2.90;;
48813;SDS011;34634;44.108;3.074;2022-11-20T00:34:22;10.63;;;4.03;;
48813;SDS011;34634;44.108;3.074;2022-11-20T00:36:48;11.80;;;3.85;;
48813;SDS011;34634;44.108;3.074;2022-11-20T00:39:15;9.63;;;3.90;;
48813;SDS011;34634;44.108;3.074;2022-11-20T00:41:41;10.10;;;3.90;;
48813;SDS011;34634;44.108;3.074;2022-11-20T00:44:07;9.30;;;3.88;;
48813;SDS011;34634;44.108;3.074;2022-11-20T00:46:34;11.57;;;3.72;;
48813;SDS011;34634;44.108;3.074;2022-11-20T00:49:00;10.13;;;3.25;;
48813;SDS011;34634;44.108;3.074;2022-11-20T00:51:27;10.50;;;3.92;;
48813;SDS011;34634;44.108;3.074;2022-11-20T00:53:57;8.27;;;3.15;;
48813;SDS011;34634;44.108;3.074;2022-11-20T00:56:25;11.02;;;4.03;;
48813;SDS011;34634;44.108;3.074;2022-11-20T00:58:51;9.82;;;3.92;;
48813;SDS011;34634;44.108;3.074;2022-11-20T01:01:22;8.80;;;3.22;;
48813;SDS011;34634;44.108;3.074;2022-11-20T01:03:52;9.93;;;2.65;;
48813;SDS011;34634;44.108;3.074;2022-11-20T01:08:46;7.90;;;2.20;;
48813;SDS011;34634;44.108;3.074;2022-11-20T01:11:19;9.82;;;2.40;;
48813;SDS011;34634;44.108;3.074;2022-11-20T01:13:46;6.47;;;2.53;;
48813;SDS011;34634;44.108;3.074;2022-11-20T01:16:14;8.23;;;3.03;;
48813;SDS011;34634;44.108;3.074;2022-11-20T01:18:42;8.82;;;3.00;;
48813;SDS011;34634;44.108;3.074;2022-11-20T01:21:13;7.13;;;2.50;;
48813;SDS011;34634;44.108;3.074;2022-11-20T01:23:40;9.57;;;2.28;;
48813;SDS011;34634;44.108;3.074;2022-11-20T01:26:08;7.88;;;3.10;;
48813;SDS011;34634;44.108;3.074;2022-11-20T01:28:35;5.13;;;1.77;;
48813;SDS011;34634;44.108;3.074;2022-11-20T01:31:01;6.85;;;1.75;;
48813;SDS011;34634;44.108;3.074;2022-11-20T01:33:37;4.88;;;1.95;;
48813;SDS011;34634;44.108;3.074;2022-11-20T01:36:03;6.07;;;1.80;;
48813;SDS011;34634;44.108;3.074;2022-11-20T01:38:30;4.90;;;1.90;;
48813;SDS011;34634;44.108;3.074;2022-11-20T01:40:58;5.13;;;2.13;;
48813;SDS011;34634;44.108;3.074;2022-11-20T01:43:24;2.95;;;1.58;;
48813;SDS011;34634;44.108;3.074;2022-11-20T01:48:17;9.30;;;1.95;;
48813;SDS011;34634;44.108;3.074;2022-11-20T01:50:44;8.10;;;2.50;;
48813;SDS011;34634;44.108;3.074;2022-11-20T01:53:12;15.00;;;4.70;;
48813;SDS011;34634;44.108;3.074;2022-11-20T01:55:40;19.35;;;5.32;;
48813;SDS011;34634;44.108;3.074;2022-11-20T01:58:07;20.13;;;5.57;;
48813;SDS011;34634;44.108;3.074;2022-11-20T02:00:34;14.30;;;4.10;;
48813;SDS011;34634;44.108;3.074;2022-11-20T02:03:02;14.48;;;3.38;;
48813;SDS011;34634;44.108;3.074;2022-11-20T02:05:33;12.25;;;3.72;;
48813;SDS011;34634;44.108;3.074;2022-11-20T02:08:02;11.07;;;3.80;;
48813;SDS011;34634;44.108;3.074;2022-11-20T02:10:28;15.00;;;4.60;;
48813;SDS011;34634;44.108;3.074;2022-11-20T02:12:55;15.95;;;5.15;;
48813;SDS011;34634;44.108;3.074;2022-11-20T02:15:40;14.93;;;4.88;;
48813;SDS011;34634;44.108;3.074;2022-11-20T02:18:07;9.70;;;3.30;;
48813;SDS011;34634;44.108;3.074;2022-11-20T02:20:33;11.52;;;3.47;;
48813;SDS011;34634;44.108;3.074;2022-11-20T02:23:12;8.82;;;3.05;;
48813;SDS011;34634;44.108;3.074;2022-11-20T02:25:39;6.38;;;2.35;;
48813;SDS011;34634;44.108;3.074;2022-11-20T02:28:06;10.05;;;3.20;;
48813;SDS011;34634;44.108;3.074;2022-11-20T02:30:33;7.18;;;3.38;;
48813;SDS011;34634;44.108;3.074;2022-11-20T02:32:59;12.20;;;2.83;;
48813;SDS011;34634;44.108;3.074;2022-11-20T02:37:56;8.93;;;2.42;;
48813;SDS011;34634;44.108;3.074;2022-11-20T02:40:23;7.22;;;2.33;;
48813;SDS011;34634;44.108;3.074;2022-11-20T02:42:53;6.82;;;2.25;;
48813;SDS011;34634;44.108;3.074;2022-11-20T02:45:20;11.60;;;2.42;;
48813;SDS011;34634;44.108;3.074;2022-11-20T02:47:48;7.63;;;2.25;;
48813;SDS011;34634;44.108;3.074;2022-11-20T02:50:14;6.90;;;2.10;;
48813;SDS011;34634;44.108;3.074;2022-11-20T02:52:40;7.05;;;1.70;;
48813;SDS011;34634;44.108;3.074;2022-11-20T02:55:07;8.52;;;2.08;;
48813;SDS011;34634;44.108;3.074;2022-11-20T02:57:33;6.72;;;1.92;;
48813;SDS011;34634;44.108;3.074;2022-11-20T02:59:59;5.68;;;2.08;;
48813;SDS011;34634;44.108;3.074;2022-11-20T03:02:29;8.85;;;2.47;;
48813;SDS011;34634;44.108;3.074;2022-11-20T03:04:55;10.23;;;2.28;;
48813;SDS011;34634;44.108;3.074;2022-11-20T03:07:21;8.18;;;2.35;;
48813;SDS011;34634;44.108;3.074;2022-11-20T03:09:48;9.48;;;2.42;;
48813;SDS011;34634;44.108;3.074;2022-11-20T03:12:14;7.43;;;2.58;;
48813;SDS011;34634;44.108;3.074;2022-11-20T03:14:40;10.60;;;2.22;;
48813;SDS011;34634;44.108;3.074;2022-11-20T03:17:07;7.63;;;1.98;;
48813;SDS011;34634;44.108;3.074;2022-11-20T03:19:34;6.15;;;2.28;;
48813;SDS011;34634;44.108;3.074;2022-11-20T03:22:00;5.85;;;2.22;;
48813;SDS011;34634;44.108;3.074;2022-11-20T03:24:27;6.43;;;2.10;;
48813;SDS011;34634;44.108;3.074;2022-11-20T03:26:53;9.45;;;2.30;;
48813;SDS011;34634;44.108;3.074;2022-11-20T03:29:19;6.88;;;2.13;;
48813;SDS011;34634;44.108;3.074;2022-11-20T03:31:45;5.55;;;2.20;;
48813;SDS011;34634;44.108;3.074;2022-11-20T03:34:12;9.68;;;2.22;;
48813;SDS011;34634;44.108;3.074;2022-11-20T03:36:39;5.75;;;2.00;;
48813;SDS011;34634;44.108;3.074;2022-11-20T03:39:05;5.97;;;2.45;;
48813;SDS011;34634;44.108;3.074;2022-11-20T03:41:35;7.00;;;1.90;;
48813;SDS011;34634;44.108;3.074;2022-11-20T03:44:03;7.35;;;2.25;;
48813;SDS011;34634;44.108;3.074;2022-11-20T03:46:29;5.20;;;2.10;;
48813;SDS011;34634;44.108;3.074;2022-11-20T03:48:56;5.05;;;2.08;;
48813;SDS011;34634;44.108;3.074;2022-11-20T03:51:26;8.15;;;1.80;;
48813;SDS011;34634;44.108;3.074;2022-11-20T03:53:54;7.85;;;2.33;;
48813;SDS011;34634;44.108;3.074;2022-11-20T03:56:24;6.72;;;2.50;;
48813;SDS011;34634;44.108;3.074;2022-11-20T03:58:51;5.93;;;2.00;;
48813;SDS011;34634;44.108;3.074;2022-11-20T04:01:18;4.65;;;1.98;;
48813;SDS011;34634;44.108;3.074;2022-11-20T04:03:45;8.23;;;2.20;;
48813;SDS011;34634;44.108;3.074;2022-11-20T04:06:13;6.32;;;2.00;;
48813;SDS011;34634;44.108;3.074;2022-11-20T04:08:39;8.80;;;2.60;;
48813;SDS011;34634;44.108;3.074;2022-11-20T04:11:16;7.68;;;2.33;;
48813;SDS011;34634;44.108;3.074;2022-11-20T04:13:46;5.90;;;2.25;;
48813;SDS011;34634;44.108;3.074;2022-11-20T04:16:12;8.07;;;2.47;;
48813;SDS011;34634;44.108;3.074;2022-11-20T04:18:39;9.75;;;2.58;;
48813;SDS011;34634;44.108;3.074;2022-11-20T04:21:05;8.20;;;2.10;;
48813;SDS011;34634;44.108;3.074;2022-11-20T04:23:32;7.32;;;2.33;;
48813;SDS011;34634;44.108;3.074;2022-11-20T04:26:05;13.05;;;2.28;;
48813;SDS011;34634;44.108;3.074;2022-11-20T04:28:32;7.70;;;2.53;;
48813;SDS011;34634;44.108;3.074;2022-11-20T04:31:06;5.57;;;2.33;;
48813;SDS011;34634;44.108;3.074;2022-11-20T04:33:33;8.40;;;2.28;;
48813;SDS011;34634;44.108;3.074;2022-11-20T04:36:00;8.00;;;2.13;;
48813;SDS011;34634;44.108;3.074;2022-11-20T04:38:27;8.48;;;2.50;;
48813;SDS011;34634;44.108;3.074;2022-11-20T04:40:57;5.15;;;2.10;;
48813;SDS011;34634;44.108;3.074;2022-11-20T04:43:24;4.53;;;2.00;;
48813;SDS011;34634;44.108;3.074;2022-11-20T04:45:53;8.10;;;2.30;;
48813;SDS011;34634;44.108;3.074;2022-11-20T04:48:20;9.10;;;2.63;;
48813;SDS011;34634;44.108;3.074;2022-11-20T04:50:46;7.25;;;2.70;;
48813;SDS011;34634;44.108;3.074;2022-11-20T04:53:12;5.90;;;2.40;;
48813;SDS011;34634;44.108;3.074;2022-11-20T04:55:39;5.30;;;2.20;;
48813;SDS011;34634;44.108;3.074;2022-11-20T04:58:05;5.72;;;2.30;;
48813;SDS011;34634;44.108;3.074;2022-11-20T05:00:32;6.10;;;2.20;;
48813;SDS011;34634;44.108;3.074;2022-11-20T05:02:58;9.85;;;2.70;;
48813;SDS011;34634;44.108;3.074;2022-11-20T05:05:24;6.75;;;1.98;;
48813;SDS011;34634;44.108;3.074;2022-11-20T05:07:51;8.60;;;2.17;;
48813;SDS011;34634;44.108;3.074;2022-11-20T05:10:17;8.30;;;2.30;;
48813;SDS011;34634;44.108;3.074;2022-11-20T05:12:44;5.40;;;2.17;;
48813;SDS011;34634;44.108;3.074;2022-11-20T05:15:10;6.13;;;2.10;;
48813;SDS011;34634;44.108;3.074;2022-11-20T05:17:36;5.05;;;2.17;;
48813;SDS011;34634;44.108;3.074;2022-11-20T05:20:02;5.72;;;2.10;;
48813;SDS011;34634;44.108;3.074;2022-11-20T05:22:29;8.95;;;2.38;;
48813;SDS011;34634;44.108;3.074;2022-11-20T05:24:55;9.25;;;2.97;;
48813;SDS011;34634;44.108;3.074;2022-11-20T05:27:21;8.30;;;3.03;;
48813;SDS011;34634;44.108;3.074;2022-11-20T05:29:48;5.85;;;2.22;;
48813;SDS011;34634;44.108;3.074;2022-11-20T05:32:14;8.95;;;2.72;;
48813;SDS011;34634;44.108;3.074;2022-11-20T05:34:40;10.13;;;2.35;;
48813;SDS011;34634;44.108;3.074;2022-11-20T05:37:06;8.57;;;2.80;;
48813;SDS011;34634;44.108;3.074;2022-11-20T05:39:33;7.53;;;2.85;;
48813;SDS011;34634;44.108;3.074;2022-11-20T05:41:59;8.38;;;2.30;;
48813;SDS011;34634;44.108;3.074;2022-11-20T05:44:44;6.93;;;2.28;;
48813;SDS011;34634;44.108;3.074;2022-11-20T05:47:11;8.38;;;3.00;;
48813;SDS011;34634;44.108;3.074;2022-11-20T05:49:37;8.43;;;2.55;;
48813;SDS011;34634;44.108;3.074;2022-11-20T05:52:03;27.77;;;9.23;;
48813;SDS011;34634;44.108;3.074;2022-11-20T05:54:30;27.15;;;10.63;;
48813;SDS011;34634;44.108;3.074;2022-11-20T05:56:56;53.55;;;22.33;;
48813;SDS011;34634;44.108;3.074;2022-11-20T05:59:22;57.92;;;23.83;;
48813;SDS011;34634;44.108;3.074;2022-11-20T06:01:48;40.72;;;14.80;;
48813;SDS011;34634;44.108;3.074;2022-11-20T06:04:15;17.00;;;6.45;;
48813;SDS011;34634;44.108;3.074;2022-11-20T06:06:41;9.05;;;2.60;;
48813;SDS011;34634;44.108;3.074;2022-11-20T06:09:07;10.32;;;2.83;;
48813;SDS011;34634;44.108;3.074;2022-11-20T06:11:34;8.60;;;2.83;;
48813;SDS011;34634;44.108;3.074;2022-11-20T06:14:00;9.70;;;2.92;;
48813;SDS011;34634;44.108;3.074;2022-11-20T06:16:26;7.47;;;2.60;;
48813;SDS011;34634;44.108;3.074;2022-11-20T06:18:52;6.40;;;2.28;;
48813;SDS011;34634;44.108;3.074;2022-11-20T06:21:19;5.22;;;2.13;;
48813;SDS011;34634;44.108;3.074;2022-11-20T06:23:46;5.53;;;2.53;;
48813;SDS011;34634;44.108;3.074;2022-11-20T06:26:18;6.07;;;2.50;;
48813;SDS011;34634;44.108;3.074;2022-11-20T06:28:44;5.03;;;2.50;;
48813;SDS011;34634;44.108;3.074;2022-11-20T06:31:12;9.85;;;3.00;;
48813;SDS011;34634;44.108;3.074;2022-11-20T06:33:39;7.35;;;2.97;;
48813;SDS011;34634;44.108;3.074;2022-11-20T06:36:05;7.30;;;3.03;;
48813;SDS011;34634;44.108;3.074;2022-11-20T06:38:31;7.05;;;3.50;;
48813;SDS011;34634;44.108;3.074;2022-11-20T06:40:58;13.27;;;4.80;;
48813;SDS011;34634;44.108;3.074;2022-11-20T06:43:24;14.45;;;5.95;;
48813;SDS011;34634;44.108;3.074;2022-11-20T06:45:54;12.43;;;6.22;;
48813;SDS011;34634;44.108;3.074;2022-11-20T06:48:20;16.58;;;7.18;;
48813;SDS011;34634;44.108;3.074;2022-11-20T06:50:47;16.88;;;7.40;;
48813;SDS011;34634;44.108;3.074;2022-11-20T06:53:13;17.33;;;7.78;;
48813;SDS011;34634;44.108;3.074;2022-11-20T06:55:46;13.13;;;7.95;;
48813;SDS011;34634;44.108;3.074;2022-11-20T06:58:13;21.08;;;9.10;;
48813;SDS011;34634;44.108;3.074;2022-11-20T07:00:40;16.02;;;7.75;;
48813;SDS011;34634;44.108;3.074;2022-11-20T07:03:07;15.32;;;8.73;;
48813;SDS011;34634;44.108;3.074;2022-11-20T07:05:34;18.58;;;7.72;;
48813;SDS011;34634;44.108;3.074;2022-11-20T07:08:01;14.38;;;6.90;;
48813;SDS011;34634;44.108;3.074;2022-11-20T07:10:27;19.40;;;8.10;;
48813;SDS011;34634;44.108;3.074;2022-11-20T07:12:53;18.67;;;8.27;;
48813;SDS011;34634;44.108;3.074;2022-11-20T07:15:20;14.45;;;6.20;;
48813;SDS011;34634;44.108;3.074;2022-11-20T07:17:47;26.83;;;13.43;;
48813;SDS011;34634;44.108;3.074;2022-11-20T07:20:13;17.55;;;8.05;;
48813;SDS011;34634;44.108;3.074;2022-11-20T07:22:39;10.80;;;5.85;;
48813;SDS011;34634;44.108;3.074;2022-11-20T07:25:06;10.15;;;4.70;;
48813;SDS011;34634;44.108;3.074;2022-11-20T07:27:32;10.20;;;4.90;;
48813;SDS011;34634;44.108;3.074;2022-11-20T07:29:59;6.60;;;3.47;;
48813;SDS011;34634;44.108;3.074;2022-11-20T07:32:25;8.95;;;3.30;;
48813;SDS011;34634;44.108;3.074;2022-11-20T07:34:52;12.93;;;3.08;;
48813;SDS011;34634;44.108;3.074;2022-11-20T07:37:18;9.00;;;4.72;;
48813;SDS011;34634;44.108;3.074;2022-11-20T07:39:44;13.30;;;5.20;;
48813;SDS011;34634;44.108;3.074;2022-11-20T07:42:11;17.58;;;6.43;;
48813;SDS011;34634;44.108;3.074;2022-11-20T07:44:37;32.42;;;15.73;;
48813;SDS011;34634;44.108;3.074;2022-11-20T07:47:04;32.72;;;15.15;;
48813;SDS011;34634;44.108;3.074;2022-11-20T07:49:30;28.10;;;14.57;;
48813;SDS011;34634;44.108;3.074;2022-11-20T07:51:57;25.88;;;14.98;;
48813;SDS011;34634;44.108;3.074;2022-11-20T07:54:23;33.58;;;18.42;;
48813;SDS011;34634;44.108;3.074;2022-11-20T07:56:49;30.30;;;19.27;;
48813;SDS011;34634;44.108;3.074;2022-11-20T07:59:16;26.98;;;15.20;;
48813;SDS011;34634;44.108;3.074;2022-11-20T08:01:42;28.67;;;15.07;;
48813;SDS011;34634;44.108;3.074;2022-11-20T08:04:09;34.95;;;17.73;;
48813;SDS011;34634;44.108;3.074;2022-11-20T08:06:36;16.48;;;9.93;;
48813;SDS011;34634;44.108;3.074;2022-11-20T08:09:02;18.10;;;8.73;;
48813;SDS011;34634;44.108;3.074;2022-11-20T08:11:29;19.98;;;6.70;;
48813;SDS011;34634;44.108;3.074;2022-11-20T08:14:14;30.20;;;10.45;;
48813;SDS011;34634;44.108;3.074;2022-11-20T08:16:41;9.85;;;4.18;;
48813;SDS011;34634;44.108;3.074;2022-11-20T08:19:08;9.90;;;2.80;;
48813;SDS011;34634;44.108;3.074;2022-11-20T08:21:34;5.82;;;2.40;;
48813;SDS011;34634;44.108;3.074;2022-11-20T08:24:01;8.13;;;2.10;;
48813;SDS011;34634;44.108;3.074;2022-11-20T08:26:27;7.97;;;2.40;;
48813;SDS011;34634;44.108;3.074;2022-11-20T08:28:55;15.32;;;7.18;;
48813;SDS011;34634;44.108;3.074;2022-11-20T08:31:22;17.80;;;12.15;;
48813;SDS011;34634;44.108;3.074;2022-11-20T08:33:48;7.80;;;3.60;;
48813;SDS011;34634;44.108;3.074;2022-11-20T08:36:15;4.13;;;2.58;;
48813;SDS011;34634;44.108;3.074;2022-11-20T08:38:41;6.18;;;2.53;;
48813;SDS011;34634;44.108;3.074;2022-11-20T08:41:08;4.20;;;2.47;;
48813;SDS011;34634;44.108;3.074;2022-11-20T08:43:51;8.32;;;1.98;;
48813;SDS011;34634;44.108;3.074;2022-11-20T08:46:18;6.65;;;3.00;;
48813;SDS011;34634;44.108;3.074;2022-11-20T08:48:45;9.75;;;4.78;;
48813;SDS011;34634;44.108;3.074;2022-11-20T08:51:11;4.32;;;2.50;;
48813;SDS011;34634;44.108;3.074;2022-11-20T08:53:38;6.68;;;3.65;;
48813;SDS011;34634;44.108;3.074;2022-11-20T08:56:05;7.13;;;3.80;;
48813;SDS011;34634;44.108;3.074;2022-11-20T08:58:31;5.88;;;3.22;;
48813;SDS011;34634;44.108;3.074;2022-11-20T09:00:58;7.20;;;3.20;;
48813;SDS011;34634;44.108;3.074;2022-11-20T09:03:24;7.75;;;4.97;;
48813;SDS011;34634;44.108;3.074;2022-11-20T09:05:56;7.72;;;4.78;;
48813;SDS011;34634;44.108;3.074;2022-11-20T09:08:23;7.93;;;4.10;;
48813;SDS011;34634;44.108;3.074;2022-11-20T09:10:52;9.95;;;4.82;;
48813;SDS011;34634;44.108;3.074;2022-11-20T09:13:20;7.70;;;4.10;;
48813;SDS011;34634;44.108;3.074;2022-11-20T09:15:46;5.70;;;2.92;;
48813;SDS011;34634;44.108;3.074;2022-11-20T09:18:13;7.10;;;3.85;;
48813;SDS011;34634;44.108;3.074;2022-11-20T09:20:39;5.10;;;3.53;;
48813;SDS011;34634;44.108;3.074;2022-11-20T09:23:05;8.95;;;3.08;;
48813;SDS011;34634;44.108;3.074;2022-11-20T09:25:32;5.35;;;2.33;;
48813;SDS011;34634;44.108;3.074;2022-11-20T09:27:58;5.55;;;2.58;;
48813;SDS011;34634;44.108;3.074;2022-11-20T09:30:25;7.60;;;3.08;;
48813;SDS011;34634;44.108;3.074;2022-11-20T09:32:52;4.85;;;2.40;;
48813;SDS011;34634;44.108;3.074;2022-11-20T09:35:18;4.32;;;2.38;;
48813;SDS011;34634;44.108;3.074;2022-11-20T09:37:45;5.60;;;2.55;;
48813;SDS011;34634;44.108;3.074;2022-11-20T09:40:24;4.82;;;2.47;;
48813;SDS011;34634;44.108;3.074;2022-11-20T09:55:39;8.25;;;4.40;;
48813;SDS011;34634;44.108;3.074;2022-11-20T09:58:06;9.63;;;5.05;;
48813;SDS011;34634;44.108;3.074;2022-11-20T10:00:34;27.25;;;14.40;;
48813;SDS011;34634;44.108;3.074;2022-11-20T10:03:03;28.45;;;14.40;;
48813;SDS011;34634;44.108;3.074;2022-11-20T10:08:18;8.50;;;2.75;;
48813;SDS011;34634;44.108;3.074;2022-11-20T10:19:02;6.50;;;1.95;;
48813;SDS011;34634;44.108;3.074;2022-11-20T10:29:34;9.50;;;5.28;;
48813;SDS011;34634;44.108;3.074;2022-11-20T10:32:14;15.65;;;7.22;;
48813;SDS011;34634;44.108;3.074;2022-11-20T10:37:14;8.68;;;2.63;;
48813;SDS011;34634;44.108;3.074;2022-11-20T10:39:44;4.70;;;1.77;;
48813;SDS011;34634;44.108;3.074;2022-11-20T10:42:15;4.68;;;1.83;;
48813;SDS011;34634;44.108;3.074;2022-11-20T10:44:43;3.72;;;1.30;;
48813;SDS011;34634;44.108;3.074;2022-11-20T10:47:30;6.47;;;2.10;;
48813;SDS011;34634;44.108;3.074;2022-11-20T10:49:57;5.57;;;1.70;;
48813;SDS011;34634;44.108;3.074;2022-11-20T10:55:06;7.53;;;1.90;;
48813;SDS011;34634;44.108;3.074;2022-11-20T11:00:07;6.65;;;2.42;;
48813;SDS011;34634;44.108;3.074;2022-11-20T11:02:41;3.22;;;1.33;;
48813;SDS011;34634;44.108;3.074;2022-11-20T11:07:54;3.30;;;1.30;;
48813;SDS011;34634;44.108;3.074;2022-11-20T11:10:24;6.53;;;1.42;;
48813;SDS011;34634;44.108;3.074;2022-11-20T11:12:51;4.88;;;1.60;;
48813;SDS011;34634;44.108;3.074;2022-11-20T11:15:25;4.05;;;1.30;;
48813;SDS011;34634;44.108;3.074;2022-11-20T11:17:52;4.75;;;1.30;;
48813;SDS011;34634;44.108;3.074;2022-11-20T11:20:20;5.15;;;1.83;;
48813;SDS011;34634;44.108;3.074;2022-11-20T11:22:47;4.72;;;2.10;;
48813;SDS011;34634;44.108;3.074;2022-11-20T11:25:30;6.05;;;1.95;;
48813;SDS011;34634;44.108;3.074;2022-11-20T11:28:19;4.40;;;1.60;;
48813;SDS011;34634;44.108;3.074;2022-11-20T11:30:46;4.95;;;1.58;;
48813;SDS011;34634;44.108;3.074;2022-11-20T11:35:48;4.68;;;1.42;;
48813;SDS011;34634;44.108;3.074;2022-11-20T11:38:28;4.05;;;1.67;;
48813;SDS011;34634;44.108;3.074;2022-11-20T11:40:55;3.65;;;1.40;;
48813;SDS011;34634;44.108;3.074;2022-11-20T11:43:23;3.45;;;1.30;;
48813;SDS011;34634;44.108;3.074;2022-11-20T11:46:31;5.35;;;1.92;;
48813;SDS011;34634;44.108;3.074;2022-11-20T11:48:56;4.65;;;1.30;;
48813;SDS011;34634;44.108;3.074;2022-11-20T11:51:24;5.68;;;1.30;;
48813;SDS011;34634;44.108;3.074;2022-11-20T11:53:54;2.53;;;1.20;;
48813;SDS011;34634;44.108;3.074;2022-11-20T11:56:21;3.10;;;1.23;;
48813;SDS011;34634;44.108;3.074;2022-11-20T11:58:48;3.58;;;1.40;;
48813;SDS011;34634;44.108;3.074;2022-11-20T12:04:04;4.60;;;0.75;;
48813;SDS011;34634;44.108;3.074;2022-11-20T12:06:31;1.50;;;0.70;;
48813;SDS011;34634;44.108;3.074;2022-11-20T12:09:02;3.40;;;1.17;;
48813;SDS011;34634;44.108;3.074;2022-11-20T12:14:32;2.42;;;1.08;;
48813;SDS011;34634;44.108;3.074;2022-11-20T12:17:00;4.13;;;1.38;;
48813;SDS011;34634;44.108;3.074;2022-11-20T12:19:28;3.10;;;1.25;;
48813;SDS011;34634;44.108;3.074;2022-11-20T12:29:43;2.58;;;1.10;;
48813;SDS011;34634;44.108;3.074;2022-11-20T12:39:49;2.33;;;1.08;;
48813;SDS011;34634;44.108;3.074;2022-11-20T12:52:57;4.22;;;1.50;;
48813;SDS011;34634;44.108;3.074;2022-11-20T12:55:35;3.15;;;1.20;;
48813;SDS011;34634;44.108;3.074;2022-11-20T13:00:51;4.85;;;1.33;;
48813;SDS011;34634;44.108;3.074;2022-11-20T13:04:06;4.78;;;1.75;;
48813;SDS011;34634;44.108;3.074;2022-11-20T13:06:16;2.72;;;1.55;;
48813;SDS011;34634;44.108;3.074;2022-11-20T13:08:45;6.70;;;1.25;;
48813;SDS011;34634;44.108;3.074;2022-11-20T13:18:38;4.25;;;1.20;;
48813;SDS011;34634;44.108;3.074;2022-11-20T13:23:46;1.42;;;0.93;;
48813;SDS011;34634;44.108;3.074;2022-11-20T13:28:41;3.78;;;1.33;;
48813;SDS011;34634;44.108;3.074;2022-11-20T13:34:11;3.20;;;1.10;;
48813;SDS011;34634;44.108;3.074;2022-11-20T13:36:38;3.58;;;1.20;;
48813;SDS011;34634;44.108;3.074;2022-11-20T13:39:23;4.22;;;1.10;;
48813;SDS011;34634;44.108;3.074;2022-11-20T13:41:56;3.22;;;1.05;;
48813;SDS011;34634;44.108;3.074;2022-11-20T13:46:59;3.53;;;1.00;;
48813;SDS011;34634;44.108;3.074;2022-11-20T13:49:27;7.00;;;1.30;;
48813;SDS011;34634;44.108;3.074;2022-11-20T13:52:04;2.13;;;1.10;;
48813;SDS011;34634;44.108;3.074;2022-11-20T14:01:57;2.20;;;1.25;;
48813;SDS011;34634;44.108;3.074;2022-11-20T14:04:27;5.97;;;1.17;;
48813;SDS011;34634;44.108;3.074;2022-11-20T14:06:54;3.42;;;1.10;;
48813;SDS011;34634;44.108;3.074;2022-11-20T14:09:25;6.65;;;1.90;;
48813;SDS011;34634;44.108;3.074;2022-11-20T14:11:52;3.63;;;1.27;;
48813;SDS011;34634;44.108;3.074;2022-11-20T14:14:19;4.68;;;2.00;;
48813;SDS011;34634;44.108;3.074;2022-11-20T14:16:46;4.88;;;1.60;;
48813;SDS011;34634;44.108;3.074;2022-11-20T14:21:49;5.35;;;2.00;;
48813;SDS011;34634;44.108;3.074;2022-11-20T14:24:21;5.25;;;1.10;;
48813;SDS011;34634;44.108;3.074;2022-11-20T14:26:48;2.78;;;1.60;;
48813;SDS011;34634;44.108;3.074;2022-11-20T14:29:15;2.55;;;0.98;;
48813;SDS011;34634;44.108;3.074;2022-11-20T14:31:42;2.08;;;1.08;;
48813;SDS011;34634;44.108;3.074;2022-11-20T14:34:27;6.25;;;1.42;;
48813;SDS011;34634;44.108;3.074;2022-11-20T14:37:04;3.70;;;1.67;;
48813;SDS011;34634;44.108;3.074;2022-11-20T14:39:35;3.13;;;1.20;;
48813;SDS011;34634;44.108;3.074;2022-11-20T14:42:03;3.90;;;1.27;;
48813;SDS011;34634;44.108;3.074;2022-11-20T14:44:31;3.30;;;1.17;;
48813;SDS011;34634;44.108;3.074;2022-11-20T14:46:59;5.05;;;1.90;;
48813;SDS011;34634;44.108;3.074;2022-11-20T14:49:26;4.28;;;1.73;;
48813;SDS011;34634;44.108;3.074;2022-11-20T14:52:12;4.78;;;2.22;;
48813;SDS011;34634;44.108;3.074;2022-11-20T14:57:20;5.47;;;1.85;;
48813;SDS011;34634;44.108;3.074;2022-11-20T14:59:47;8.80;;;2.30;;
48813;SDS011;34634;44.108;3.074;2022-11-20T15:02:13;4.32;;;1.52;;
48813;SDS011;34634;44.108;3.074;2022-11-20T15:04:49;3.33;;;2.13;;
48813;SDS011;34634;44.108;3.074;2022-11-20T15:07:23;12.10;;;3.83;;
48813;SDS011;34634;44.108;3.074;2022-11-20T15:10:09;5.15;;;2.05;;
48813;SDS011;34634;44.108;3.074;2022-11-20T15:12:38;1.98;;;1.33;;
48813;SDS011;34634;44.108;3.074;2022-11-20T15:15:05;4.78;;;2.17;;
48813;SDS011;34634;44.108;3.074;2022-11-20T15:17:32;3.22;;;1.58;;
48813;SDS011;34634;44.108;3.074;2022-11-20T15:20:00;2.10;;;1.10;;
48813;SDS011;34634;44.108;3.074;2022-11-20T15:22:28;6.03;;;1.80;;
48813;SDS011;34634;44.108;3.074;2022-11-20T15:24:54;5.25;;;2.15;;
48813;SDS011;34634;44.108;3.074;2022-11-20T15:27:20;5.80;;;2.08;;
48813;SDS011;34634;44.108;3.074;2022-11-20T15:29:46;2.35;;;0.90;;
48813;SDS011;34634;44.108;3.074;2022-11-20T15:32:13;3.08;;;1.13;;
48813;SDS011;34634;44.108;3.074;2022-11-20T15:34:39;4.38;;;2.00;;
48813;SDS011;34634;44.108;3.074;2022-11-20T15:37:05;4.85;;;2.30;;
48813;SDS011;34634;44.108;3.074;2022-11-20T15:39:32;6.25;;;2.72;;
48813;SDS011;34634;44.108;3.074;2022-11-20T15:41:58;7.63;;;3.13;;
48813;SDS011;34634;44.108;3.074;2022-11-20T15:44:24;22.73;;;6.32;;
48813;SDS011;34634;44.108;3.074;2022-11-20T15:46:51;7.78;;;2.25;;
48813;SDS011;34634;44.108;3.074;2022-11-20T15:49:17;6.68;;;2.17;;
48813;SDS011;34634;44.108;3.074;2022-11-20T15:51:44;9.63;;;3.53;;
48813;SDS011;34634;44.108;3.074;2022-11-20T15:56:39;8.82;;;3.92;;
48813;SDS011;34634;44.108;3.074;2022-11-20T15:59:05;3.78;;;1.40;;
48813;SDS011;34634;44.108;3.074;2022-11-20T16:01:31;6.95;;;1.98;;
48813;SDS011;34634;44.108;3.074;2022-11-20T16:03:58;4.40;;;2.17;;
48813;SDS011;34634;44.108;3.074;2022-11-20T16:06:25;8.55;;;3.50;;
48813;SDS011;34634;44.108;3.074;2022-11-20T16:08:51;3.65;;;1.70;;
48813;SDS011;34634;44.108;3.074;2022-11-20T16:11:17;4.53;;;1.92;;
48813;SDS011;34634;44.108;3.074;2022-11-20T16:13:44;3.88;;;2.10;;
48813;SDS011;34634;44.108;3.074;2022-11-20T16:16:30;2.80;;;1.70;;
48813;SDS011;34634;44.108;3.074;2022-11-20T16:18:57;6.22;;;1.80;;
48813;SDS011;34634;44.108;3.074;2022-11-20T16:21:23;7.20;;;1.90;;
48813;SDS011;34634;44.108;3.074;2022-11-20T16:24:00;5.55;;;2.03;;
48813;SDS011;34634;44.108;3.074;2022-11-20T16:26:26;6.10;;;3.40;;
48813;SDS011;34634;44.108;3.074;2022-11-20T16:28:53;7.22;;;2.70;;
48813;SDS011;34634;44.108;3.074;2022-11-20T16:31:20;4.22;;;2.10;;
48813;SDS011;34634;44.108;3.074;2022-11-20T16:33:50;2.38;;;1.50;;
48813;SDS011;34634;44.108;3.074;2022-11-20T16:36:17;4.03;;;2.65;;
48813;SDS011;34634;44.108;3.074;2022-11-20T16:38:44;6.70;;;3.25;;
48813;SDS011;34634;44.108;3.074;2022-11-20T16:41:10;4.70;;;2.08;;
48813;SDS011;34634;44.108;3.074;2022-11-20T16:43:46;3.75;;;2.55;;
48813;SDS011;34634;44.108;3.074;2022-11-20T16:46:13;6.50;;;3.08;;
48813;SDS011;34634;44.108;3.074;2022-11-20T16:48:40;4.35;;;2.70;;